createdAt,value
2023-10-15T00:00:39.241Z,94893.34
2023-10-15T00:03:27.427Z,94893.02
2023-10-15T00:05:55.487Z,94894.98
2023-10-15T00:08:23.530Z,94898.57
2023-10-15T00:10:51.780Z,94898.42
2023-10-15T00:13:19.991Z,94896.98
2023-10-15T00:15:48.052Z,94897.20
2023-10-15T00:18:16.295Z,94893.83
2023-10-15T00:20:44.573Z,94892.33
2023-10-15T00:23:14.842Z,94892.48
2023-10-15T00:25:48.946Z,94890.59
2023-10-15T00:28:17.568Z,94893.69
2023-10-15T00:30:45.844Z,94890.63
2023-10-15T00:33:14.222Z,94884.67
2023-10-15T00:35:51.539Z,94881.64
2023-10-15T00:38:20.892Z,94876.24
2023-10-15T00:41:02.055Z,94877.96
2023-10-15T00:43:31.969Z,94878.14
2023-10-15T00:46:01.633Z,94879.66
2023-10-15T00:48:35.457Z,94883.16
2023-10-15T00:51:12.497Z,94883.93
2023-10-15T00:53:51.429Z,94881.45
2023-10-15T00:56:21.622Z,94875.36
2023-10-15T00:58:53.567Z,94883.65
2023-10-15T01:01:24.247Z,94872.77
2023-10-15T01:03:55.935Z,94866.08
2023-10-15T01:06:28.306Z,94864.05
2023-10-15T01:09:00.296Z,94858.95
2023-10-15T01:11:31.578Z,94855.11
2023-10-15T01:14:00.485Z,94853.23
2023-10-15T01:16:30.176Z,94853.17
2023-10-15T01:19:13.296Z,94848.73
2023-10-15T01:21:54.901Z,94848.71
2023-10-15T01:24:24.944Z,94850.07
2023-10-15T01:27:13.283Z,94850.40
2023-10-15T01:29:42.730Z,94850.39
2023-10-15T01:32:12.808Z,94848.65
2023-10-15T01:34:46.720Z,94845.52
2023-10-15T01:37:24.723Z,94843.82
2023-10-15T01:39:54.226Z,94839.67
2023-10-15T01:42:28.352Z,94838.41
2023-10-15T01:45:15.160Z,94837.55
2023-10-15T01:47:50.467Z,94833.78
2023-10-15T01:50:25.300Z,94840.52
2023-10-15T01:53:03.165Z,94843.02
2023-10-15T01:55:31.957Z,94842.09
2023-10-15T01:58:04.794Z,94839.66
2023-10-15T02:00:36.271Z,94835.34
2023-10-15T02:03:04.820Z,94832.27
2023-10-15T02:06:02.331Z,94828.79
2023-10-15T02:08:30.292Z,94832.52
2023-10-15T02:11:00.006Z,94831.45
2023-10-15T02:13:29.289Z,94827.02
2023-10-15T02:15:57.890Z,94826.05
2023-10-15T02:18:31.076Z,94825.41
2023-10-15T02:20:59.355Z,94822.81
2023-10-15T02:23:28.010Z,94818.70
2023-10-15T02:26:02.050Z,94812.31
2023-10-15T02:28:33.348Z,94805.98
2023-10-15T02:31:11.049Z,94804.41
2023-10-15T02:33:40.474Z,94800.87
2023-10-15T02:36:11.501Z,94802.89
2023-10-15T02:38:53.810Z,94800.52
2023-10-15T02:41:42.260Z,94797.95
2023-10-15T02:44:19.355Z,94796.05
2023-10-15T02:46:51.682Z,94794.61
2023-10-15T02:49:19.675Z,94798.48
2023-10-15T02:51:49.239Z,94793.73
2023-10-15T02:54:20.486Z,94792.48
2023-10-15T02:56:48.784Z,94795.30
2023-10-15T02:59:18.288Z,94789.52
2023-10-15T03:01:47.824Z,94790.00
2023-10-15T03:04:34.371Z,94789.33
2023-10-15T03:07:21.236Z,94788.10
2023-10-15T03:09:50.368Z,94792.03
2023-10-15T03:12:19.481Z,94790.15
2023-10-15T03:14:47.845Z,94794.44
2023-10-15T03:17:25.353Z,94793.49
2023-10-15T03:20:11.496Z,94791.33
2023-10-15T03:22:39.537Z,94795.08
2023-10-15T03:25:14.670Z,94795.89
2023-10-15T03:27:47.919Z,94798.20
2023-10-15T03:30:16.354Z,94799.77
2023-10-15T03:32:47.466Z,94794.64
2023-10-15T03:35:19.796Z,94789.88
2023-10-15T03:37:49.042Z,94788.91
2023-10-15T03:40:34.136Z,94781.08
2023-10-15T03:43:08.319Z,94777.89
2023-10-15T03:45:42.471Z,94776.02
2023-10-15T03:48:15.919Z,94767.46
2023-10-15T03:50:54.957Z,94766.67
2023-10-15T03:53:29.480Z,94764.47
2023-10-15T03:56:02.776Z,94762.27
2023-10-15T03:58:32.956Z,94761.95
2023-10-15T04:01:18.252Z,94760.86
2023-10-15T04:03:49.737Z,94762.32
2023-10-15T04:06:18.649Z,94760.52
2023-10-15T04:09:05.387Z,94761.69
2023-10-15T04:11:43.829Z,94759.90
2023-10-15T04:14:22.000Z,94761.48
2023-10-15T04:16:52.066Z,94761.58
2023-10-15T04:19:20.263Z,94761.92
2023-10-15T04:21:48.384Z,94760.20
2023-10-15T04:24:23.105Z,94763.20
2023-10-15T04:26:51.601Z,94757.80
2023-10-15T04:29:19.772Z,94756.52
2023-10-15T04:32:05.516Z,94754.38
2023-10-15T04:34:34.192Z,94754.27
2023-10-15T04:37:28.527Z,94758.29
2023-10-15T04:40:10.633Z,94760.20
2023-10-15T04:42:50.442Z,94757.83
2023-10-15T04:45:25.912Z,94755.79
2023-10-15T04:48:00.820Z,94754.30
2023-10-15T04:50:36.961Z,94750.73
2023-10-15T04:53:14.790Z,94754.11
2023-10-15T04:55:44.180Z,94754.55
2023-10-15T04:58:12.504Z,94757.65
2023-10-15T05:00:45.262Z,94755.34
2023-10-15T05:03:14.024Z,94752.14
2023-10-15T05:05:43.881Z,94756.53
2023-10-15T05:08:12.823Z,94756.25
2023-10-15T05:10:52.415Z,94752.98
2023-10-15T05:13:21.607Z,94756.08
2023-10-15T05:15:50.840Z,94759.92
2023-10-15T05:18:21.995Z,94763.02
2023-10-15T05:20:51.217Z,94763.04
2023-10-15T05:23:20.861Z,94761.72
2023-10-15T05:25:51.283Z,94756.75
2023-10-15T05:28:20.229Z,94759.57
2023-10-15T05:30:48.299Z,94764.27
2023-10-15T05:33:17.449Z,94763.25
2023-10-15T05:35:48.494Z,94759.67
2023-10-15T05:38:18.472Z,94761.63
2023-10-15T05:40:46.742Z,94766.25
2023-10-15T05:43:15.052Z,94770.91
2023-10-15T05:45:47.327Z,94772.23
2023-10-15T05:48:18.829Z,94776.30
2023-10-15T05:50:49.161Z,94778.21
2023-10-15T05:53:18.120Z,94783.09
2023-10-15T05:55:46.746Z,94778.42
2023-10-15T05:58:15.012Z,94779.95
2023-10-15T06:00:43.186Z,94783.44
2023-10-15T06:03:11.862Z,94787.17
2023-10-15T06:05:40.728Z,94789.30
2023-10-15T06:08:09.817Z,94793.15
2023-10-15T06:10:38.326Z,94796.64
2023-10-15T06:13:06.535Z,94798.08
2023-10-15T06:15:34.767Z,94800.77
2023-10-15T06:18:03.036Z,94802.98
2023-10-15T06:20:31.338Z,94803.04
2023-10-15T06:23:05.319Z,94806.63
2023-10-15T06:25:34.015Z,94812.08
2023-10-15T06:28:03.001Z,94813.84
2023-10-15T06:30:31.194Z,94818.07
2023-10-15T06:32:59.606Z,94825.02
2023-10-15T06:35:28.211Z,94827.19
2023-10-15T06:37:59.679Z,94822.67
2023-10-15T06:40:29.927Z,94822.33
2023-10-15T06:43:02.318Z,94823.81
2023-10-15T06:45:33.097Z,94827.10
2023-10-15T06:48:03.142Z,94832.87
2023-10-15T06:50:32.095Z,94839.73
2023-10-15T06:53:06.574Z,94838.20
2023-10-15T06:55:35.160Z,94838.29
2023-10-15T06:58:03.577Z,94833.27
2023-10-15T07:00:33.337Z,94840.68
2023-10-15T07:03:01.795Z,94851.10
2023-10-15T07:05:30.130Z,94861.31
2023-10-15T07:07:58.739Z,94862.82
2023-10-15T07:10:27.280Z,94867.25
2023-10-15T07:12:58.685Z,94875.36
2023-10-15T07:15:26.862Z,94881.59
2023-10-15T07:17:55.564Z,94884.46
2023-10-15T07:20:28.966Z,94889.48
2023-10-15T07:22:58.685Z,94898.67
2023-10-15T07:25:30.174Z,94902.42
2023-10-15T07:27:59.185Z,94908.07
2023-10-15T07:30:27.374Z,94916.70
2023-10-15T07:32:59.368Z,94922.76
2023-10-15T07:35:28.944Z,94923.08
2023-10-15T07:37:58.337Z,94929.41
2023-10-15T07:40:28.160Z,94927.73
2023-10-15T07:43:00.991Z,94932.89
2023-10-15T07:45:31.037Z,94927.70
2023-10-15T07:48:03.702Z,94926.54
2023-10-15T07:50:35.422Z,94921.41
2023-10-15T07:53:05.362Z,94917.31
2023-10-15T07:55:34.185Z,94911.95
2023-10-15T07:58:02.642Z,94912.91
2023-10-15T08:00:31.954Z,94915.44
2023-10-15T08:03:02.405Z,94916.15
2023-10-15T08:05:34.429Z,94916.21
2023-10-15T08:08:05.673Z,94915.38
2023-10-15T08:10:36.920Z,94916.09
2023-10-15T08:13:06.681Z,94917.75
2023-10-15T08:15:39.952Z,94920.20
2023-10-15T08:18:08.676Z,94923.56
2023-10-15T08:20:36.882Z,94922.82
2023-10-15T08:23:05.001Z,94931.17
2023-10-15T08:25:37.686Z,94936.98
2023-10-15T08:28:05.926Z,94941.21
2023-10-15T08:30:34.606Z,94941.38
2023-10-15T08:33:05.328Z,94950.15
2023-10-15T08:35:34.428Z,94954.40
2023-10-15T08:38:02.730Z,94957.55
2023-10-15T08:40:34.273Z,94962.90
2023-10-15T08:43:12.205Z,94966.15
2023-10-15T08:45:43.875Z,94966.73
2023-10-15T08:48:12.764Z,94967.27
2023-10-15T08:50:41.687Z,94968.60
2023-10-15T08:53:10.297Z,94960.45
2023-10-15T08:55:38.937Z,94957.92
2023-10-15T08:58:08.486Z,94961.55
2023-10-15T09:00:40.628Z,94963.66
2023-10-15T09:03:15.917Z,94960.82
2023-10-15T09:05:44.765Z,94963.58
2023-10-15T09:08:15.377Z,94960.05
2023-10-15T09:10:44.383Z,94957.45
2023-10-15T09:13:17.832Z,94955.39
2023-10-15T09:15:47.748Z,94952.85
2023-10-15T09:18:17.769Z,94947.19
2023-10-15T09:20:48.015Z,94940.27
2023-10-15T09:23:17.132Z,94934.35
2023-10-15T09:25:46.067Z,94929.77
2023-10-15T09:28:14.173Z,94928.92
2023-10-15T09:30:42.149Z,94934.23
2023-10-15T09:33:14.033Z,94928.98
2023-10-15T09:35:43.149Z,94930.64
2023-10-15T09:38:15.839Z,94932.12
2023-10-15T09:40:47.861Z,94928.73
2023-10-15T09:43:16.772Z,94924.04
2023-10-15T09:45:44.776Z,94917.24
2023-10-15T09:48:12.958Z,94914.50
2023-10-15T09:50:43.021Z,94916.09
2023-10-15T09:53:11.972Z,94913.91
2023-10-15T09:55:43.705Z,94908.93
2023-10-15T09:58:13.935Z,94912.18
2023-10-15T10:00:56.170Z,94912.23
2023-10-15T10:03:39.728Z,94904.07
2023-10-15T10:06:11.060Z,94901.57
2023-10-15T10:08:45.120Z,94903.73
2023-10-15T10:11:24.192Z,94897.75
2023-10-15T10:13:58.490Z,94896.34
2023-10-15T10:16:28.726Z,94893.20
2023-10-15T10:18:57.159Z,94896.25
2023-10-15T10:21:29.406Z,94896.09
2023-10-15T10:24:00.240Z,94898.16
2023-10-15T10:26:28.983Z,94900.98
2023-10-15T10:28:58.511Z,94899.42
2023-10-15T10:31:27.695Z,94896.38
2023-10-15T10:33:56.268Z,94897.81
2023-10-15T10:36:29.170Z,94896.23
2023-10-15T10:39:09.219Z,94891.73
2023-10-15T10:41:56.406Z,94894.11
2023-10-15T10:44:27.677Z,94891.05
2023-10-15T10:46:59.537Z,94887.29
2023-10-15T10:49:38.929Z,94880.83
2023-10-15T10:52:07.221Z,94883.27
2023-10-15T10:54:37.740Z,94885.60
2023-10-15T10:57:08.508Z,94888.79
2023-10-15T10:59:41.893Z,94880.93
2023-10-15T11:02:15.363Z,94878.55
2023-10-15T11:04:44.416Z,94868.85
2023-10-15T11:07:14.577Z,94851.42
2023-10-15T11:09:42.921Z,94837.88
2023-10-15T11:12:11.267Z,94832.30
2023-10-15T11:14:41.515Z,94852.66
2023-10-15T11:17:10.143Z,94853.46
2023-10-15T11:19:39.522Z,94849.54
2023-10-15T11:22:07.708Z,94843.21
2023-10-15T11:24:35.834Z,94844.55
2023-10-15T11:27:08.081Z,94839.10
2023-10-15T11:29:36.579Z,94841.05
2023-10-15T11:32:08.041Z,94842.48
2023-10-15T11:34:36.684Z,94839.95
2023-10-15T11:37:07.248Z,94840.95
2023-10-15T11:39:39.716Z,94835.21
2023-10-15T11:42:09.203Z,94835.88
2023-10-15T11:44:38.313Z,94838.86
2023-10-15T11:47:26.135Z,94845.42
2023-10-15T12:05:21.866Z,94842.56
2023-10-15T12:07:51.650Z,94848.23
2023-10-15T12:10:23.113Z,94850.21
2023-10-15T12:12:52.088Z,94845.66
2023-10-15T12:15:20.318Z,94851.58
2023-10-15T12:17:49.050Z,94858.10
2023-10-15T12:20:20.632Z,94866.70
2023-10-15T12:22:49.352Z,94872.22
2023-10-15T12:25:17.561Z,94869.95
2023-10-15T12:27:45.835Z,94869.36
2023-10-15T12:30:28.820Z,94869.67
2023-10-15T12:32:59.753Z,94872.66
2023-10-15T12:35:28.842Z,94872.71
2023-10-15T12:38:03.801Z,94870.83
2023-10-15T12:40:33.473Z,94873.74
2023-10-15T12:43:10.135Z,94879.91
2023-10-15T12:45:41.480Z,94884.45
2023-10-15T12:48:09.836Z,94876.84
2023-10-15T12:50:38.573Z,94876.11
2023-10-15T12:53:06.839Z,94875.80
2023-10-15T12:55:35.610Z,94872.49
2023-10-15T12:58:04.262Z,94861.78
2023-10-15T13:00:34.179Z,94864.38
2023-10-15T13:03:04.794Z,94880.59
2023-10-15T13:05:34.249Z,94887.42
2023-10-15T13:08:04.542Z,94882.94
2023-10-15T13:10:33.733Z,94877.61
2023-10-15T13:13:02.760Z,94882.27
2023-10-15T13:15:31.057Z,94882.85
2023-10-15T13:18:00.624Z,94883.98
2023-10-15T13:20:29.085Z,94883.15
2023-10-15T13:22:57.525Z,94880.88
2023-10-15T13:25:25.714Z,94874.45
2023-10-15T13:27:53.949Z,94875.50
2023-10-15T13:30:23.842Z,94883.79
2023-10-15T13:32:52.312Z,94891.85
2023-10-15T13:35:20.842Z,94895.52
2023-10-15T13:37:49.511Z,94892.27
2023-10-15T13:40:20.116Z,94885.05
2023-10-15T13:42:49.207Z,94881.68
2023-10-15T13:45:19.553Z,94881.56
2023-10-15T13:47:48.233Z,94871.66
2023-10-15T13:50:19.926Z,94876.52
2023-10-15T13:52:48.986Z,94874.59
2023-10-15T13:55:17.723Z,94880.35
2023-10-15T13:57:46.088Z,94878.74
2023-10-15T14:00:20.956Z,94876.26
2023-10-15T14:02:50.531Z,94874.48
2023-10-15T14:05:20.014Z,94875.23
2023-10-15T14:07:53.774Z,94884.16
2023-10-15T14:10:22.057Z,94885.54
2023-10-15T14:12:57.246Z,94885.13
2023-10-15T14:15:28.488Z,94885.66
2023-10-15T14:17:56.620Z,94885.88
2023-10-15T14:20:24.837Z,94885.48
2023-10-15T14:22:55.954Z,94886.19
2023-10-15T14:25:24.293Z,94881.71
2023-10-15T14:27:52.438Z,94881.99
2023-10-15T14:30:20.865Z,94881.73
2023-10-15T14:32:51.231Z,94882.96
2023-10-15T14:35:20.043Z,94874.41
2023-10-15T14:37:48.287Z,94872.38
2023-10-15T14:40:16.415Z,94873.55
2023-10-15T14:42:46.043Z,94879.89
2023-10-15T14:45:17.440Z,94876.41
2023-10-15T14:47:45.779Z,94876.88
2023-10-15T14:50:14.539Z,94880.59
2023-10-15T14:52:43.266Z,94884.85
2023-10-15T14:55:12.165Z,94889.27
2023-10-15T14:57:40.339Z,94881.98
2023-10-15T15:00:09.669Z,94872.00
2023-10-15T15:02:37.987Z,94869.52
2023-10-15T15:05:06.452Z,94872.49
2023-10-15T15:07:34.555Z,94877.94
2023-10-15T15:10:03.153Z,94874.10
2023-10-15T15:12:31.525Z,94879.88
2023-10-15T15:14:59.903Z,94886.08
2023-10-15T15:17:28.183Z,94883.54
2023-10-15T15:19:56.657Z,94882.37
2023-10-15T15:22:24.782Z,94879.10
2023-10-15T15:24:53.521Z,94881.48
2023-10-15T15:27:21.821Z,94883.46
2023-10-15T15:29:50.402Z,94888.08
2023-10-15T15:32:18.583Z,94893.20
2023-10-15T15:34:47.239Z,94891.58
2023-10-15T15:37:15.764Z,94893.48
2023-10-15T15:39:44.850Z,94896.48
2023-10-15T15:42:13.052Z,94895.70
2023-10-15T15:44:41.282Z,94896.23
2023-10-15T15:47:10.123Z,94899.21
2023-10-15T15:49:38.523Z,94897.64
2023-10-15T15:52:10.829Z,94900.86
2023-10-15T15:54:39.386Z,94901.28
2023-10-15T15:57:09.504Z,94903.57
2023-10-15T15:59:38.100Z,94905.48
2023-10-15T16:02:10.308Z,94908.84
2023-10-15T16:04:38.669Z,94910.96
2023-10-15T16:07:06.897Z,94912.61
2023-10-15T16:09:36.117Z,94915.44
2023-10-15T16:12:04.359Z,94908.89
2023-10-15T16:14:34.159Z,94907.78
2023-10-15T16:17:02.531Z,94911.98
2023-10-15T16:19:31.312Z,94921.63
2023-10-15T16:21:59.389Z,94916.09
2023-10-15T16:24:27.593Z,94908.05
2023-10-15T16:26:55.827Z,94913.46
2023-10-15T16:29:24.025Z,94905.76
2023-10-15T16:31:52.314Z,94913.47
2023-10-15T16:34:24.752Z,94919.42
2023-10-15T16:36:54.143Z,94924.61
2023-10-15T16:39:23.638Z,94926.60
2023-10-15T16:41:51.832Z,94928.99
2023-10-15T16:44:20.858Z,94931.31
2023-10-15T16:46:49.203Z,94936.19
2023-10-15T16:49:17.534Z,94934.66
2023-10-15T16:51:47.171Z,94942.71
2023-10-15T16:54:15.415Z,94951.83
2023-10-15T16:56:43.565Z,94952.41
2023-10-15T16:59:12.961Z,94953.17
2023-10-15T17:01:43.946Z,94958.50
2023-10-15T17:04:12.070Z,94953.05
2023-10-15T17:06:40.262Z,94953.90
2023-10-15T17:09:10.206Z,94957.38
2023-10-15T17:11:38.640Z,94966.33
2023-10-15T17:14:07.450Z,94970.33
2023-10-15T17:16:35.548Z,94969.02
2023-10-15T17:19:03.692Z,94969.31
2023-10-15T17:21:34.784Z,94973.00
2023-10-15T17:24:03.280Z,94969.72
2023-10-15T17:26:31.508Z,94969.58
2023-10-15T17:29:00.824Z,94967.84
2023-10-15T17:31:29.019Z,94964.44
2023-10-15T17:33:57.108Z,94963.04
2023-10-15T17:36:29.316Z,94965.02
2023-10-15T17:39:03.503Z,94971.21
2023-10-15T17:41:31.744Z,94972.72
2023-10-15T17:43:59.913Z,94976.35
2023-10-15T17:46:31.476Z,94978.55
2023-10-15T17:48:59.719Z,94980.83
2023-10-15T17:51:30.673Z,94987.48
2023-10-15T17:53:59.198Z,94994.40
2023-10-15T17:56:28.339Z,94993.54
2023-10-15T17:59:01.622Z,95003.27
2023-10-15T18:01:31.214Z,95010.48
2023-10-15T18:03:59.473Z,95015.29
2023-10-15T18:06:27.882Z,95016.52
2023-10-15T18:08:56.113Z,95024.17
2023-10-15T18:11:24.664Z,95027.88
2023-10-15T18:13:54.137Z,95031.75
2023-10-15T18:16:23.411Z,95033.13
2023-10-15T18:18:55.419Z,95036.59
2023-10-15T18:21:24.400Z,95039.19
2023-10-15T18:23:52.589Z,95039.39
2023-10-15T18:26:22.413Z,95046.55
2023-10-15T18:28:52.367Z,95050.77
2023-10-15T18:31:23.415Z,95053.74
2023-10-15T18:33:54.759Z,95048.79
2023-10-15T18:36:28.335Z,95047.27
2023-10-15T18:39:00.477Z,95043.64
2023-10-15T18:41:29.949Z,95042.25
2023-10-15T18:43:59.843Z,95050.78
2023-10-15T18:46:28.141Z,95054.55
2023-10-15T18:48:57.918Z,95058.96
2023-10-15T18:51:36.327Z,95055.15
2023-10-15T18:54:05.769Z,95057.06
2023-10-15T18:56:36.346Z,95073.09
2023-10-15T18:59:04.793Z,95079.45
2023-10-15T19:01:33.333Z,95082.46
2023-10-15T19:04:01.792Z,95088.63
2023-10-15T19:06:30.688Z,95093.90
2023-10-15T19:08:59.032Z,95093.73
2023-10-15T19:11:28.577Z,95090.20
2023-10-15T19:13:58.612Z,95093.90
2023-10-15T19:16:26.869Z,95098.77
2023-10-15T19:18:55.634Z,95098.94
2023-10-15T19:21:25.849Z,95098.96
2023-10-15T19:23:54.382Z,95091.98
2023-10-15T19:26:23.273Z,95087.66
2023-10-15T19:28:53.705Z,95083.70
2023-10-15T19:31:23.209Z,95085.17
2023-10-15T19:33:51.691Z,95086.55
2023-10-15T19:36:23.219Z,95093.85
2023-10-15T19:38:51.582Z,95096.27
2023-10-15T19:41:20.404Z,95097.49
2023-10-15T19:43:48.618Z,95107.13
2023-10-15T19:46:16.839Z,95118.42
2023-10-15T19:48:45.046Z,95118.27
2023-10-15T19:51:19.351Z,95104.60
2023-10-15T19:53:49.106Z,95112.79
2023-10-15T19:56:17.249Z,95120.65
2023-10-15T19:58:47.728Z,95118.73
2023-10-15T20:01:16.471Z,95116.36
2023-10-15T20:04:02.816Z,95124.52
2023-10-15T20:06:34.843Z,95130.20
2023-10-15T20:09:10.845Z,95125.14
2023-10-15T20:11:40.042Z,95134.20
2023-10-15T20:14:08.330Z,95135.80
2023-10-15T20:16:37.024Z,95137.85
2023-10-15T20:19:06.820Z,95146.09
2023-10-15T20:21:37.561Z,95146.08
2023-10-15T20:24:07.270Z,95139.38
2023-10-15T20:26:36.391Z,95129.96
2023-10-15T20:29:04.648Z,95117.38
2023-10-15T20:31:32.842Z,95110.09
2023-10-15T20:34:05.118Z,95120.90
2023-10-15T20:36:35.691Z,95131.63
2023-10-15T20:39:07.806Z,95131.43
2023-10-15T20:41:38.741Z,95135.81
2023-10-15T20:44:07.020Z,95141.54
2023-10-15T20:46:35.463Z,95145.27
2023-10-15T20:49:06.198Z,95149.30
2023-10-15T20:51:35.081Z,95155.39
2023-10-15T20:54:04.443Z,95162.39
2023-10-15T20:56:32.602Z,95168.89
2023-10-15T20:59:00.704Z,95168.77
2023-10-15T21:01:29.079Z,95172.91
2023-10-15T21:03:57.356Z,95174.88
2023-10-15T21:06:26.418Z,95175.30
2023-10-15T21:08:54.633Z,95171.13
2023-10-15T21:11:22.791Z,95167.52
2023-10-15T21:13:52.404Z,95167.79
2023-10-15T21:16:20.678Z,95156.98
2023-10-15T21:18:48.874Z,95151.77
2023-10-15T21:21:17.065Z,95152.39
2023-10-15T21:23:45.249Z,95155.29
2023-10-15T21:26:13.347Z,95166.04
2023-10-15T21:28:41.728Z,95178.09
2023-10-15T21:31:10.036Z,95193.79
2023-10-15T21:33:38.295Z,95202.73
2023-10-15T21:36:06.959Z,95204.38
2023-10-15T21:38:35.014Z,95205.15
2023-10-15T21:41:05.430Z,95206.45
2023-10-15T21:43:33.472Z,95209.23
2023-10-15T21:46:01.766Z,95209.73
2023-10-15T21:48:29.877Z,95216.94
2023-10-15T21:50:57.969Z,95220.38
2023-10-15T21:53:26.099Z,95222.45
2023-10-15T21:55:54.362Z,95229.31
2023-10-15T21:58:22.458Z,95232.59
2023-10-15T22:00:53.410Z,95236.21
2023-10-15T22:03:21.735Z,95228.55
2023-10-15T22:05:49.960Z,95223.88
2023-10-15T22:08:18.653Z,95225.40
2023-10-15T22:10:46.809Z,95236.56
2023-10-15T22:13:19.697Z,95251.85
2023-10-15T22:15:55.910Z,95253.09
2023-10-15T22:18:24.581Z,95264.55
2023-10-15T22:20:53.916Z,95269.50
2023-10-15T22:23:22.655Z,95260.70
2023-10-15T22:25:53.118Z,95253.63
2023-10-15T22:28:26.551Z,95252.52
2023-10-15T22:30:56.319Z,95249.35
2023-10-15T22:33:28.216Z,95248.70
2023-10-15T22:35:56.360Z,95250.84
2023-10-15T22:38:24.458Z,95247.94
2023-10-15T22:40:53.190Z,95244.22
2023-10-15T22:43:23.100Z,95242.59
2023-10-15T22:45:53.122Z,95237.73
2023-10-15T22:48:21.377Z,95240.94
2023-10-15T22:50:49.533Z,95242.40
2023-10-15T22:53:18.213Z,95247.52
2023-10-15T22:55:47.720Z,95250.60
2023-10-15T22:58:19.242Z,95246.31
2023-10-15T23:00:51.383Z,95252.05
2023-10-15T23:03:21.296Z,95254.72
2023-10-15T23:05:51.281Z,95257.08
2023-10-15T23:08:19.737Z,95263.36
2023-10-15T23:10:47.916Z,95266.32
2023-10-15T23:13:18.956Z,95264.54
2023-10-15T23:15:48.710Z,95273.27
2023-10-15T23:18:22.113Z,95273.02
2023-10-15T23:20:53.548Z,95279.74
2023-10-15T23:23:24.454Z,95287.38
2023-10-15T23:25:53.684Z,95289.20
2023-10-15T23:28:25.283Z,95290.08
2023-10-15T23:30:57.679Z,95289.50
2023-10-15T23:33:30.467Z,95290.55
2023-10-15T23:35:59.760Z,95289.83
2023-10-15T23:38:28.335Z,95287.21
2023-10-15T23:40:56.536Z,95291.52
2023-10-15T23:43:25.592Z,95292.91
2023-10-15T23:46:05.865Z,95293.42
2023-10-15T23:48:38.588Z,95293.89
2023-10-15T23:51:14.286Z,95296.91
2023-10-15T23:53:44.383Z,95295.89
2023-10-15T23:56:24.104Z,95296.71
2023-10-15T23:58:57.547Z,95297.35
